createdAt,value
2022-12-04T00:00:34.645Z,22
2022-12-04T00:02:37.793Z,23
2022-12-04T00:03:58.838Z,23
2022-12-04T00:05:01.199Z,23
2022-12-04T00:06:24.023Z,23
2022-12-04T00:07:31.158Z,23
2022-12-04T00:08:33.842Z,21
2022-12-04T00:09:36.384Z,21
2022-12-04T00:10:38.939Z,22
2022-12-04T00:11:47.550Z,21
2022-12-04T00:14:20.546Z,22
2022-12-04T00:16:55.999Z,20
2022-12-04T00:18:05.137Z,21
2022-12-04T00:19:07.597Z,21
2022-12-04T00:20:10.161Z,22
2022-12-04T00:21:12.728Z,21
2022-12-04T00:22:15.279Z,21
2022-12-04T00:23:17.901Z,22
2022-12-04T00:24:20.548Z,20
2022-12-04T00:25:23.115Z,20
2022-12-04T00:26:30.199Z,20
2022-12-04T00:27:52.501Z,20
2022-12-04T00:29:35.005Z,21
2022-12-04T00:30:36.781Z,21
2022-12-04T00:31:49.246Z,22
2022-12-04T00:32:51.713Z,21
2022-12-04T00:33:54.234Z,22
2022-12-04T00:35:06.803Z,21
2022-12-04T00:36:59.430Z,20
2022-12-04T00:38:11.129Z,20
2022-12-04T00:39:13.178Z,22
2022-12-04T00:40:15.720Z,22
2022-12-04T00:41:28.253Z,22
2022-12-04T00:42:40.334Z,22
2022-12-04T00:43:42.442Z,21
2022-12-04T00:44:45.593Z,21
2022-12-04T00:45:58.225Z,21
2022-12-04T00:47:00.707Z,20
2022-12-04T00:48:03.232Z,20
2022-12-04T00:49:05.789Z,20
2022-12-04T00:50:08.375Z,20
2022-12-04T00:51:10.952Z,18
2022-12-04T00:52:13.495Z,20
2022-12-04T00:53:26.091Z,20
2022-12-04T00:54:28.279Z,18
2022-12-04T00:55:30.949Z,20
2022-12-04T00:56:33.525Z,18
2022-12-04T00:57:36.064Z,18
2022-12-04T00:58:38.613Z,20
2022-12-04T00:59:41.214Z,20
2022-12-04T01:00:43.798Z,20
2022-12-04T01:01:46.621Z,20
2022-12-04T01:02:49.251Z,20
2022-12-04T01:03:52.480Z,20
2022-12-04T01:04:55.035Z,20
2022-12-04T01:05:57.611Z,21
2022-12-04T01:07:03.338Z,22
2022-12-04T01:08:07.823Z,22
2022-12-04T01:09:10.665Z,22
2022-12-04T01:10:13.217Z,21
2022-12-04T01:11:15.720Z,20
2022-12-04T01:12:21.004Z,21
2022-12-04T01:13:23.688Z,20
2022-12-04T01:14:26.180Z,18
2022-12-04T01:15:28.697Z,15
2022-12-04T01:16:31.300Z,18
2022-12-04T01:17:34.147Z,20
2022-12-04T01:18:36.694Z,20
2022-12-04T01:19:49.276Z,19
2022-12-04T01:20:52.894Z,18
2022-12-04T01:21:55.367Z,21
2022-12-04T01:22:57.909Z,21
2022-12-04T01:24:00.377Z,21
2022-12-04T01:25:03.441Z,22
2022-12-04T01:26:05.980Z,22
2022-12-04T01:27:08.436Z,20
2022-12-04T01:28:11.082Z,20
2022-12-04T01:29:13.783Z,19
2022-12-04T01:30:16.361Z,17
2022-12-04T01:31:19.035Z,20
2022-12-04T01:32:21.938Z,20
2022-12-04T01:33:24.509Z,20
2022-12-04T01:34:27.137Z,20
2022-12-04T01:35:33.449Z,19
2022-12-04T01:36:35.860Z,19
2022-12-04T01:37:38.468Z,20
2022-12-04T01:38:41.054Z,19
2022-12-04T01:39:43.657Z,20
2022-12-04T01:40:46.292Z,20
2022-12-04T01:41:48.884Z,21
2022-12-04T01:42:52.079Z,20
2022-12-04T01:43:56.160Z,20
2022-12-04T01:44:58.713Z,20
2022-12-04T01:46:01.384Z,20
2022-12-04T01:47:04.288Z,21
2022-12-04T01:48:06.872Z,21
2022-12-04T01:49:09.440Z,20
2022-12-04T01:50:12.010Z,20
2022-12-04T01:51:14.623Z,21
2022-12-04T01:52:17.188Z,21
2022-12-04T01:53:19.819Z,22
2022-12-04T01:54:25.927Z,22
2022-12-04T01:55:28.308Z,22
2022-12-04T01:56:30.875Z,22
2022-12-04T01:57:33.476Z,21
2022-12-04T01:58:36.069Z,20
2022-12-04T01:59:39.290Z,20
2022-12-04T02:00:42.202Z,20
2022-12-04T02:01:45.095Z,20
2022-12-04T02:02:47.906Z,20
2022-12-04T02:03:50.764Z,20
2022-12-04T02:04:53.385Z,20
2022-12-04T02:05:55.958Z,20
2022-12-04T02:06:58.559Z,20
2022-12-04T02:08:01.238Z,19
2022-12-04T02:09:04.182Z,20
2022-12-04T02:10:06.730Z,21
2022-12-04T02:11:09.960Z,21
2022-12-04T02:12:12.514Z,22
2022-12-04T02:13:15.131Z,25
2022-12-04T02:14:17.726Z,25
2022-12-04T02:15:20.324Z,24
2022-12-04T02:16:23.089Z,22
2022-12-04T02:17:25.935Z,23
2022-12-04T02:18:28.561Z,21
2022-12-04T02:19:31.179Z,22
2022-12-04T02:20:33.778Z,23
2022-12-04T02:21:36.451Z,22
2022-12-04T02:22:39.297Z,23
2022-12-04T02:23:41.860Z,23
2022-12-04T02:24:49.737Z,23
2022-12-04T02:25:52.721Z,22
2022-12-04T02:26:55.306Z,23
2022-12-04T02:27:57.898Z,22
2022-12-04T02:29:00.476Z,22
2022-12-04T02:30:03.091Z,22
2022-12-04T02:31:05.767Z,22
2022-12-04T02:32:08.806Z,22
2022-12-04T02:33:11.424Z,22
2022-12-04T02:34:14.028Z,22
2022-12-04T02:35:16.645Z,20
2022-12-04T02:36:19.259Z,22
2022-12-04T02:37:21.854Z,22
2022-12-04T02:38:24.436Z,22
2022-12-04T02:39:27.037Z,22
2022-12-04T02:40:29.696Z,22
2022-12-04T02:41:32.318Z,22
2022-12-04T02:42:34.982Z,22
2022-12-04T02:43:37.564Z,22
2022-12-04T02:44:40.161Z,23
2022-12-04T02:45:42.770Z,22
2022-12-04T02:46:45.854Z,20
2022-12-04T02:47:48.605Z,21
2022-12-04T02:48:51.427Z,20
2022-12-04T02:49:54.345Z,22
2022-12-04T02:50:57.879Z,20
2022-12-04T02:52:00.449Z,22
2022-12-04T02:53:03.075Z,22
2022-12-04T02:54:05.665Z,23
2022-12-04T02:55:08.904Z,23
2022-12-04T02:56:11.551Z,23
2022-12-04T02:57:14.219Z,24
2022-12-04T02:58:16.821Z,23
2022-12-04T02:59:19.454Z,22
2022-12-04T03:00:22.088Z,22
2022-12-04T03:01:24.757Z,22
2022-12-04T03:02:27.704Z,21
2022-12-04T03:03:30.644Z,20
2022-12-04T03:04:33.264Z,22
2022-12-04T03:05:35.862Z,21
2022-12-04T03:06:38.520Z,22
2022-12-04T03:07:41.194Z,22
2022-12-04T03:08:44.051Z,22
2022-12-04T03:09:46.715Z,21
2022-12-04T03:10:49.301Z,22
2022-12-04T03:11:51.933Z,22
2022-12-04T03:12:54.553Z,22
2022-12-04T03:13:57.105Z,21
2022-12-04T03:14:59.701Z,21
2022-12-04T03:16:02.276Z,22
2022-12-04T03:17:04.988Z,21
2022-12-04T03:18:07.932Z,21
2022-12-04T03:19:10.595Z,22
2022-12-04T03:20:13.233Z,22
2022-12-04T03:21:15.839Z,20
2022-12-04T03:22:18.461Z,21
2022-12-04T03:23:21.052Z,22
2022-12-04T03:24:23.697Z,20
2022-12-04T03:25:26.311Z,21
2022-12-04T03:26:29.504Z,20
2022-12-04T03:27:32.109Z,20
2022-12-04T03:28:34.735Z,20
2022-12-04T03:29:37.918Z,21
2022-12-04T03:30:40.510Z,20
2022-12-04T03:31:43.334Z,21
2022-12-04T03:32:45.934Z,22
2022-12-04T03:33:48.576Z,21
2022-12-04T03:34:51.309Z,20
2022-12-04T03:35:54.002Z,20
2022-12-04T03:36:56.621Z,20
2022-12-04T03:37:59.816Z,20
2022-12-04T03:39:02.421Z,21
2022-12-04T03:40:05.609Z,20
2022-12-04T03:41:08.207Z,20
2022-12-04T03:42:10.765Z,22
2022-12-04T03:43:13.954Z,20
2022-12-04T03:44:16.528Z,20
2022-12-04T03:45:19.110Z,21
2022-12-04T03:46:21.744Z,22
2022-12-04T03:47:24.565Z,20
2022-12-04T03:48:27.209Z,22
2022-12-04T03:49:29.830Z,21
2022-12-04T03:50:32.527Z,20
2022-12-04T03:51:35.145Z,21
2022-12-04T03:52:37.781Z,20
2022-12-04T03:53:40.362Z,20
2022-12-04T03:54:43.002Z,21
2022-12-04T03:55:45.593Z,22
2022-12-04T03:56:48.207Z,20
2022-12-04T03:57:50.813Z,20
2022-12-04T03:58:53.417Z,22
2022-12-04T03:59:56.420Z,21
2022-12-04T04:00:59.894Z,21
2022-12-04T04:02:02.926Z,21
2022-12-04T04:03:06.099Z,20
2022-12-04T04:04:08.977Z,21
2022-12-04T04:05:11.585Z,21
2022-12-04T04:06:14.261Z,20
2022-12-04T04:07:16.870Z,20
2022-12-04T04:08:19.613Z,20
2022-12-04T04:09:22.448Z,20
2022-12-04T04:10:25.030Z,20
2022-12-04T04:11:27.660Z,22
2022-12-04T04:12:30.227Z,22
2022-12-04T04:13:32.861Z,22
2022-12-04T04:14:35.516Z,20
2022-12-04T04:15:38.157Z,21
2022-12-04T04:16:41.027Z,20
2022-12-04T04:17:43.635Z,20
2022-12-04T04:18:46.271Z,20
2022-12-04T04:19:48.817Z,20
2022-12-04T04:20:51.448Z,20
2022-12-04T04:21:54.173Z,20
2022-12-04T04:22:56.756Z,20
2022-12-04T04:23:59.358Z,21
2022-12-04T04:25:01.974Z,20
2022-12-04T04:26:04.594Z,21
2022-12-04T04:27:07.212Z,22
2022-12-04T04:28:09.802Z,21
2022-12-04T04:29:12.376Z,20
2022-12-04T04:30:14.992Z,20
2022-12-04T04:31:17.670Z,20
2022-12-04T04:32:20.531Z,20
2022-12-04T04:33:23.127Z,20
2022-12-04T04:34:25.723Z,22
2022-12-04T04:35:28.550Z,22
2022-12-04T04:36:31.183Z,22
2022-12-04T04:37:33.872Z,22
2022-12-04T04:38:36.475Z,21
2022-12-04T04:39:39.089Z,22
2022-12-04T04:40:41.719Z,22
2022-12-04T04:41:44.353Z,22
2022-12-04T04:42:46.964Z,22
2022-12-04T04:43:49.567Z,22
2022-12-04T04:44:52.175Z,22
2022-12-04T04:45:54.850Z,21
2022-12-04T04:46:57.748Z,22
2022-12-04T04:48:00.576Z,22
2022-12-04T04:49:03.198Z,20
2022-12-04T04:50:05.780Z,21
2022-12-04T04:51:08.429Z,21
2022-12-04T04:52:12.584Z,21
2022-12-04T04:53:15.156Z,22
2022-12-04T04:54:17.724Z,21
2022-12-04T04:55:20.350Z,21
2022-12-04T04:56:22.952Z,22
2022-12-04T04:57:25.562Z,22
2022-12-04T04:58:28.208Z,20
2022-12-04T04:59:30.824Z,20
2022-12-04T05:00:33.489Z,22
2022-12-04T05:01:36.113Z,22
2022-12-04T05:02:48.981Z,20
2022-12-04T05:03:51.420Z,20
2022-12-04T05:04:53.989Z,20
2022-12-04T05:05:56.637Z,20
2022-12-04T05:06:59.461Z,22
2022-12-04T05:08:02.109Z,20
2022-12-04T05:09:05.097Z,21
2022-12-04T05:10:07.703Z,20
2022-12-04T05:11:10.329Z,21
2022-12-04T05:12:12.974Z,21
2022-12-04T05:13:15.584Z,20
2022-12-04T05:14:18.207Z,22
2022-12-04T05:15:20.798Z,22
2022-12-04T05:16:23.628Z,21
2022-12-04T05:17:26.726Z,20
2022-12-04T05:18:29.393Z,22
2022-12-04T05:19:31.952Z,22
2022-12-04T05:20:34.550Z,20
2022-12-04T05:21:37.140Z,20
2022-12-04T05:22:39.746Z,20
2022-12-04T05:23:42.421Z,20
2022-12-04T05:24:45.130Z,22
2022-12-04T05:25:47.737Z,22
2022-12-04T05:26:50.349Z,21
2022-12-04T05:27:52.965Z,22
2022-12-04T05:28:55.626Z,22
2022-12-04T05:29:58.456Z,20
2022-12-04T05:31:02.100Z,21
2022-12-04T05:32:04.869Z,20
2022-12-04T05:33:07.607Z,20
2022-12-04T05:34:11.818Z,20
2022-12-04T05:35:14.377Z,20
2022-12-04T05:36:17.002Z,20
2022-12-04T05:37:19.624Z,20
2022-12-04T05:38:22.242Z,21
2022-12-04T05:39:25.148Z,21
2022-12-04T05:40:28.811Z,20
2022-12-04T05:41:31.453Z,20
2022-12-04T05:42:34.041Z,20
2022-12-04T05:43:36.597Z,20
2022-12-04T05:44:39.191Z,21
2022-12-04T05:45:42.394Z,20
2022-12-04T05:46:45.037Z,21
2022-12-04T05:47:47.941Z,20
2022-12-04T05:48:50.562Z,20
2022-12-04T05:49:54.402Z,21
2022-12-04T05:51:01.949Z,21
2022-12-04T05:52:05.848Z,22
2022-12-04T05:53:08.379Z,21
2022-12-04T05:54:10.986Z,22
2022-12-04T05:55:13.612Z,21
2022-12-04T05:56:16.288Z,22
2022-12-04T05:57:18.899Z,20
2022-12-04T05:58:21.769Z,21
2022-12-04T05:59:24.398Z,21
2022-12-04T06:00:27.037Z,20
2022-12-04T06:01:29.646Z,21
2022-12-04T06:02:32.414Z,20
2022-12-04T06:03:35.602Z,22
2022-12-04T06:04:38.507Z,22
2022-12-04T06:05:41.107Z,21
2022-12-04T06:06:43.755Z,21
2022-12-04T06:07:46.399Z,22
2022-12-04T06:08:49.361Z,22
2022-12-04T06:09:51.986Z,21
2022-12-04T06:10:54.676Z,22
2022-12-04T06:11:57.421Z,22
2022-12-04T06:13:00.292Z,21
2022-12-04T06:14:02.940Z,20
2022-12-04T06:15:05.581Z,21
2022-12-04T06:16:08.159Z,21
2022-12-04T06:17:10.972Z,21
2022-12-04T06:18:13.625Z,20
2022-12-04T06:19:16.237Z,21
2022-12-04T06:20:22.398Z,20
2022-12-04T06:21:25.200Z,21
2022-12-04T06:22:27.796Z,20
2022-12-04T06:23:30.395Z,20
2022-12-04T06:24:33.013Z,21
2022-12-04T06:25:35.659Z,20
2022-12-04T06:26:47.669Z,22
2022-12-04T06:28:00.095Z,21
2022-12-04T06:29:02.644Z,20
2022-12-04T06:30:06.260Z,20
2022-12-04T06:31:08.879Z,22
2022-12-04T06:32:15.171Z,22
2022-12-04T06:33:24.493Z,21
2022-12-04T06:34:27.068Z,22
2022-12-04T06:35:29.631Z,22
2022-12-04T06:36:32.218Z,22
2022-12-04T06:37:34.817Z,22
2022-12-04T06:38:37.404Z,22
2022-12-04T06:39:40.066Z,20
2022-12-04T06:40:42.725Z,20
2022-12-04T06:41:45.359Z,20
2022-12-04T06:42:47.956Z,22
2022-12-04T06:43:50.677Z,24
2022-12-04T06:44:53.316Z,27
2022-12-04T06:45:55.986Z,25
2022-12-04T06:47:00.885Z,23
2022-12-04T06:48:03.700Z,23
2022-12-04T06:49:06.307Z,22
2022-12-04T06:50:08.923Z,22
2022-12-04T06:51:11.561Z,21
2022-12-04T06:52:14.193Z,23
2022-12-04T06:53:16.796Z,23
2022-12-04T06:54:19.412Z,22
2022-12-04T06:55:22.026Z,21
2022-12-04T06:56:24.638Z,22
2022-12-04T06:57:27.286Z,22
2022-12-04T06:58:29.909Z,20
2022-12-04T06:59:32.821Z,22
2022-12-04T07:00:35.563Z,22
2022-12-04T07:01:38.638Z,22
2022-12-04T07:02:42.489Z,23
2022-12-04T07:03:50.901Z,22
2022-12-04T07:04:54.216Z,22
2022-12-04T07:05:56.791Z,23
2022-12-04T07:06:59.342Z,24
2022-12-04T07:08:01.945Z,23
2022-12-04T07:09:04.735Z,23
2022-12-04T07:10:07.378Z,23
2022-12-04T07:11:10.000Z,23
2022-12-04T07:12:12.630Z,23
2022-12-04T07:13:15.255Z,23
2022-12-04T07:14:17.861Z,24
2022-12-04T07:15:20.775Z,25
2022-12-04T07:16:23.406Z,25
2022-12-04T07:17:26.320Z,28
2022-12-04T07:18:28.910Z,26
2022-12-04T07:19:31.535Z,26
2022-12-04T07:20:36.730Z,24
2022-12-04T07:21:39.257Z,24
2022-12-04T07:22:41.879Z,25
2022-12-04T07:23:44.522Z,24
2022-12-04T07:24:47.203Z,23
2022-12-04T07:25:49.829Z,23
2022-12-04T07:26:52.464Z,23
2022-12-04T07:27:55.096Z,23
2022-12-04T07:28:58.043Z,22
2022-12-04T07:30:00.672Z,22
2022-12-04T07:31:03.361Z,24
2022-12-04T07:32:06.053Z,38
2022-12-04T07:33:09.162Z,46
2022-12-04T07:34:11.767Z,42
2022-12-04T07:35:14.387Z,34
2022-12-04T07:36:17.596Z,30
2022-12-04T07:37:20.208Z,28
2022-12-04T07:38:22.827Z,27
2022-12-04T07:39:25.890Z,25
2022-12-04T07:40:28.526Z,28
2022-12-04T07:41:31.132Z,31
2022-12-04T07:42:33.759Z,29
2022-12-04T07:43:36.421Z,35
2022-12-04T07:44:39.061Z,43
2022-12-04T07:45:41.714Z,42
2022-12-04T07:46:44.750Z,37
2022-12-04T07:47:47.386Z,34
2022-12-04T07:48:50.005Z,31
2022-12-04T07:49:52.673Z,31
2022-12-04T07:50:56.799Z,31
2022-12-04T07:51:59.434Z,30
2022-12-04T07:53:02.041Z,30
2022-12-04T07:54:04.706Z,30
2022-12-04T07:55:10.848Z,30
2022-12-04T07:56:13.244Z,30
2022-12-04T07:57:15.816Z,27
2022-12-04T07:58:18.520Z,26
2022-12-04T07:59:21.200Z,24
2022-12-04T08:00:23.798Z,23
2022-12-04T08:01:26.457Z,23
2022-12-04T08:02:29.580Z,26
2022-12-04T08:03:32.195Z,26
2022-12-04T08:04:34.867Z,28
2022-12-04T08:05:37.807Z,27
2022-12-04T08:06:40.405Z,24
2022-12-04T08:07:43.043Z,26
2022-12-04T08:08:45.917Z,25
2022-12-04T08:09:50.077Z,25
2022-12-04T08:10:52.507Z,25
2022-12-04T08:11:55.698Z,27
2022-12-04T08:12:58.259Z,26
2022-12-04T08:14:00.839Z,27
2022-12-04T08:15:03.484Z,27
2022-12-04T08:16:06.124Z,27
2022-12-04T08:17:08.827Z,28
2022-12-04T08:18:11.830Z,30
2022-12-04T08:19:14.450Z,31
2022-12-04T08:20:17.109Z,31
2022-12-04T08:21:19.733Z,31
2022-12-04T08:22:25.176Z,31
2022-12-04T08:23:27.904Z,33
2022-12-04T08:24:30.501Z,31
2022-12-04T08:25:33.138Z,34
2022-12-04T08:26:35.730Z,41
2022-12-04T08:27:39.574Z,45
2022-12-04T08:28:49.898Z,42
2022-12-04T08:29:52.524Z,38
2022-12-04T08:30:56.193Z,37
2022-12-04T08:31:59.134Z,33
2022-12-04T08:33:01.758Z,32
2022-12-04T08:34:04.503Z,35
2022-12-04T08:35:07.139Z,35
2022-12-04T08:36:09.805Z,34
2022-12-04T08:37:12.493Z,30
2022-12-04T08:38:15.125Z,29
2022-12-04T08:39:17.920Z,28
2022-12-04T08:40:20.566Z,28
2022-12-04T08:41:24.025Z,28
2022-12-04T08:42:28.050Z,28
2022-12-04T08:43:30.657Z,29
2022-12-04T08:44:33.286Z,28
2022-12-04T08:45:35.924Z,27
2022-12-04T08:46:38.876Z,26
2022-12-04T08:47:41.869Z,26
2022-12-04T08:48:44.490Z,27
2022-12-04T08:49:47.202Z,24
2022-12-04T08:50:49.848Z,25
2022-12-04T08:51:52.466Z,27
2022-12-04T08:52:55.122Z,27
2022-12-04T08:53:57.740Z,27
2022-12-04T08:55:00.937Z,25
2022-12-04T08:56:03.557Z,28
2022-12-04T08:57:06.207Z,30
2022-12-04T08:58:08.852Z,30
2022-12-04T08:59:11.498Z,28
2022-12-04T09:00:14.153Z,28
2022-12-04T09:01:17.017Z,28
2022-12-04T09:02:19.850Z,28
2022-12-04T09:03:26.166Z,28
2022-12-04T09:04:33.358Z,27
2022-12-04T09:05:36.240Z,26
2022-12-04T09:06:38.790Z,27
2022-12-04T09:07:41.529Z,30
2022-12-04T09:08:44.383Z,30
2022-12-04T09:09:48.490Z,30
2022-12-04T09:10:51.158Z,29
2022-12-04T09:11:53.820Z,28
2022-12-04T09:12:56.449Z,29
2022-12-04T09:13:59.136Z,30
2022-12-04T09:15:02.757Z,29
2022-12-04T09:16:05.619Z,29
2022-12-04T09:17:08.635Z,30
2022-12-04T09:18:11.288Z,30
2022-12-04T09:19:15.435Z,29
2022-12-04T09:20:18.147Z,28
2022-12-04T09:21:20.903Z,25
2022-12-04T09:22:23.782Z,30
2022-12-04T09:23:26.377Z,25
2022-12-04T09:24:29.026Z,26
2022-12-04T09:25:31.692Z,26
2022-12-04T09:26:34.452Z,25
2022-12-04T09:27:37.091Z,26
2022-12-04T09:28:39.711Z,27
2022-12-04T09:29:42.429Z,27
2022-12-04T09:30:45.172Z,28
2022-12-04T09:31:48.011Z,30
2022-12-04T09:32:50.584Z,28
2022-12-04T09:33:53.228Z,30
2022-12-04T09:34:55.868Z,30
2022-12-04T09:35:58.518Z,30
2022-12-04T09:37:01.934Z,30
2022-12-04T09:38:04.723Z,29
2022-12-04T09:39:07.314Z,30
2022-12-04T09:40:09.908Z,30
2022-12-04T09:41:12.552Z,29
2022-12-04T09:42:15.194Z,31
2022-12-04T09:43:17.848Z,31
2022-12-04T09:44:20.456Z,30
2022-12-04T09:45:23.102Z,29
2022-12-04T09:46:25.710Z,30
2022-12-04T09:47:28.579Z,27
2022-12-04T09:48:31.219Z,30
2022-12-04T09:49:33.838Z,30
2022-12-04T09:50:36.502Z,30
2022-12-04T09:51:39.093Z,32
2022-12-04T09:52:41.823Z,31
2022-12-04T09:53:44.465Z,30
2022-12-04T09:54:47.074Z,31
2022-12-04T09:55:49.924Z,31
2022-12-04T09:56:52.553Z,30
2022-12-04T09:58:00.118Z,31
2022-12-04T09:59:04.806Z,29
2022-12-04T10:00:07.416Z,30
2022-12-04T10:01:10.023Z,29
2022-12-04T10:02:12.915Z,30
2022-12-04T10:03:16.207Z,30
2022-12-04T10:04:19.781Z,30
2022-12-04T10:05:22.914Z,29
2022-12-04T10:06:25.565Z,29
2022-12-04T10:07:28.294Z,30
2022-12-04T10:08:36.034Z,28
2022-12-04T10:09:38.589Z,28
2022-12-04T10:10:41.219Z,28
2022-12-04T10:11:43.855Z,27
2022-12-04T10:12:46.452Z,30
2022-12-04T10:13:49.094Z,30
2022-12-04T10:14:51.727Z,30
2022-12-04T10:15:54.400Z,30
2022-12-04T10:16:57.379Z,31
2022-12-04T10:18:00.019Z,29
2022-12-04T10:19:02.664Z,29
2022-12-04T10:20:05.408Z,29
2022-12-04T10:21:08.012Z,27
2022-12-04T10:22:10.693Z,28
2022-12-04T10:23:14.055Z,28
2022-12-04T10:24:16.973Z,28
2022-12-04T10:25:19.622Z,28
2022-12-04T10:26:22.253Z,27
2022-12-04T10:27:25.456Z,29
2022-12-04T10:28:28.166Z,28
2022-12-04T10:29:30.793Z,27
2022-12-04T10:30:33.409Z,28
2022-12-04T10:31:36.089Z,28
2022-12-04T10:32:38.989Z,26
2022-12-04T10:33:41.620Z,26
2022-12-04T10:34:45.721Z,27
2022-12-04T10:35:48.565Z,27
2022-12-04T10:36:51.211Z,28
2022-12-04T10:37:53.854Z,28
2022-12-04T10:38:56.521Z,28
2022-12-04T10:39:59.247Z,29
2022-12-04T10:41:02.070Z,29
2022-12-04T10:42:04.667Z,29
2022-12-04T10:43:07.301Z,28
2022-12-04T10:44:09.931Z,28
2022-12-04T10:45:12.732Z,29
2022-12-04T10:46:15.454Z,28
2022-12-04T10:47:18.499Z,28
2022-12-04T10:48:21.351Z,28
2022-12-04T10:49:24.192Z,27
2022-12-04T10:50:27.045Z,29
2022-12-04T10:51:30.307Z,29
2022-12-04T10:52:32.899Z,28
2022-12-04T10:53:35.555Z,28
2022-12-04T10:54:38.192Z,29
2022-12-04T10:55:42.434Z,30
2022-12-04T10:56:44.909Z,30
2022-12-04T10:57:47.506Z,30
2022-12-04T10:58:50.095Z,30
2022-12-04T10:59:52.952Z,29
2022-12-04T11:00:56.619Z,28
2022-12-04T11:02:04.732Z,28
2022-12-04T11:03:09.728Z,30
2022-12-04T11:04:12.589Z,28
2022-12-04T11:05:15.177Z,28
2022-12-04T11:06:17.791Z,29
2022-12-04T11:07:20.458Z,29
2022-12-04T11:08:23.165Z,29
2022-12-04T11:09:26.480Z,30
2022-12-04T11:10:29.084Z,30
2022-12-04T11:11:31.735Z,30
2022-12-04T11:12:34.516Z,29
2022-12-04T11:13:37.401Z,30
2022-12-04T11:14:44.107Z,30
2022-12-04T11:15:49.717Z,30
2022-12-04T11:16:52.575Z,30
2022-12-04T11:17:55.251Z,30
2022-12-04T11:18:58.112Z,31
2022-12-04T11:20:00.711Z,34
2022-12-04T11:21:07.239Z,34
2022-12-04T11:22:09.624Z,35
2022-12-04T11:23:12.266Z,33
2022-12-04T11:24:14.907Z,34
2022-12-04T11:25:17.600Z,34
2022-12-04T11:26:20.799Z,34
2022-12-04T11:27:23.418Z,33
2022-12-04T11:28:40.972Z,31
2022-12-04T11:29:44.673Z,33
2022-12-04T11:30:47.311Z,33
2022-12-04T11:31:49.928Z,34
2022-12-04T11:32:52.844Z,34
2022-12-04T11:33:55.450Z,35
2022-12-04T11:34:58.100Z,38
2022-12-04T11:36:00.687Z,41
2022-12-04T11:37:03.303Z,38
2022-12-04T11:38:05.948Z,35
2022-12-04T11:39:08.545Z,34
2022-12-04T11:40:11.328Z,32
2022-12-04T11:41:14.011Z,33
2022-12-04T11:42:16.904Z,34
2022-12-04T11:43:19.538Z,31
2022-12-04T11:44:22.204Z,31
2022-12-04T11:45:24.837Z,34
2022-12-04T11:46:27.510Z,34
2022-12-04T11:47:30.439Z,34
2022-12-04T11:48:33.091Z,33
2022-12-04T11:49:38.455Z,34
2022-12-04T11:50:46.216Z,33
2022-12-04T11:51:48.814Z,31
2022-12-04T11:52:51.402Z,34
2022-12-04T11:53:53.994Z,31
2022-12-04T11:54:56.619Z,31
2022-12-04T11:55:59.283Z,31
2022-12-04T11:57:05.439Z,34
2022-12-04T11:58:08.628Z,34
2022-12-04T11:59:22.771Z,33
2022-12-04T12:00:24.975Z,33
2022-12-04T12:01:27.563Z,34
2022-12-04T12:02:31.018Z,32
2022-12-04T12:03:34.196Z,33
2022-12-04T12:04:37.145Z,32
2022-12-04T12:05:39.768Z,32
2022-12-04T12:06:42.411Z,34
2022-12-04T12:07:45.070Z,33
2022-12-04T12:08:47.869Z,31
2022-12-04T12:09:50.566Z,30
2022-12-04T12:10:53.213Z,29
2022-12-04T12:12:04.100Z,29
2022-12-04T12:13:08.383Z,29
2022-12-04T12:14:10.961Z,30
2022-12-04T12:15:14.202Z,30
2022-12-04T12:16:16.929Z,30
2022-12-04T12:17:20.979Z,30
2022-12-04T12:18:23.521Z,31
2022-12-04T12:19:26.116Z,31
2022-12-04T12:20:28.741Z,31
2022-12-04T12:21:31.438Z,34
2022-12-04T12:22:34.063Z,34
2022-12-04T12:23:36.943Z,34
2022-12-04T12:24:40.127Z,34
2022-12-04T12:25:46.211Z,34
2022-12-04T12:26:55.428Z,31
2022-12-04T12:28:01.580Z,34
2022-12-04T12:29:03.973Z,34
2022-12-04T12:30:16.598Z,31
2022-12-04T12:31:18.957Z,30
2022-12-04T12:32:21.755Z,30
2022-12-04T12:33:24.673Z,31
2022-12-04T12:34:27.288Z,31
2022-12-04T12:35:40.122Z,30
2022-12-04T12:36:43.816Z,29
2022-12-04T12:37:46.466Z,30
2022-12-04T12:38:49.111Z,30
2022-12-04T12:39:54.475Z,30
2022-12-04T12:40:58.465Z,31
2022-12-04T12:42:01.080Z,31
2022-12-04T12:43:03.670Z,32
2022-12-04T12:44:06.449Z,30
2022-12-04T12:45:09.098Z,30
2022-12-04T12:46:12.038Z,29
2022-12-04T12:47:14.922Z,30
2022-12-04T12:48:17.577Z,29
2022-12-04T12:49:20.433Z,30
2022-12-04T12:50:24.687Z,28
2022-12-04T12:51:29.905Z,30
2022-12-04T12:52:34.493Z,30
2022-12-04T12:53:37.069Z,30
2022-12-04T12:54:40.880Z,29
2022-12-04T12:55:43.529Z,30
2022-12-04T12:56:49.691Z,30
2022-12-04T12:57:57.831Z,30
2022-12-04T12:59:00.158Z,30
2022-12-04T13:00:03.355Z,30
2022-12-04T13:01:06.239Z,30
2022-12-04T13:02:09.175Z,30
2022-12-04T13:03:12.044Z,30
2022-12-04T13:04:14.648Z,30
2022-12-04T13:05:17.223Z,30
2022-12-04T13:06:23.389Z,34
2022-12-04T13:07:25.793Z,30
2022-12-04T13:08:28.340Z,30
2022-12-04T13:09:30.961Z,31
2022-12-04T13:10:33.633Z,30
2022-12-04T13:11:36.274Z,30
2022-12-04T13:12:38.873Z,30
2022-12-04T13:13:41.526Z,29
2022-12-04T13:14:48.755Z,31
2022-12-04T13:15:51.626Z,37
2022-12-04T13:16:54.422Z,37
2022-12-04T13:17:57.368Z,37
2022-12-04T13:19:00.094Z,36
2022-12-04T13:20:06.943Z,35
2022-12-04T13:21:13.273Z,33
2022-12-04T13:22:15.891Z,34
2022-12-04T13:23:18.664Z,34
2022-12-04T13:24:21.709Z,35
2022-12-04T13:25:24.348Z,36
2022-12-04T13:26:26.918Z,36
2022-12-04T13:27:29.502Z,35
2022-12-04T13:28:32.095Z,34
2022-12-04T13:29:34.719Z,31
2022-12-04T13:30:37.316Z,31
2022-12-04T13:31:40.083Z,34
2022-12-04T13:32:43.079Z,33
2022-12-04T13:33:45.686Z,44
2022-12-04T13:34:48.378Z,59
2022-12-04T13:35:50.995Z,55
2022-12-04T13:36:53.591Z,50
2022-12-04T13:38:17.280Z,38
2022-12-04T13:39:18.452Z,35
2022-12-04T13:40:21.014Z,34
2022-12-04T13:41:23.672Z,34
2022-12-04T13:42:26.237Z,33
2022-12-04T13:43:31.618Z,34
2022-12-04T13:44:34.250Z,34
2022-12-04T13:45:37.122Z,31
2022-12-04T13:46:39.968Z,30
2022-12-04T13:47:42.745Z,30
2022-12-04T13:48:45.433Z,31
2022-12-04T13:49:48.599Z,32
2022-12-04T13:50:53.583Z,34
2022-12-04T13:51:56.166Z,33
2022-12-04T13:52:58.819Z,33
2022-12-04T13:54:01.485Z,33
2022-12-04T13:55:04.043Z,33
2022-12-04T13:56:09.534Z,31
2022-12-04T13:57:17.717Z,30
2022-12-04T13:58:20.781Z,30
2022-12-04T13:59:23.378Z,32
2022-12-04T14:00:25.987Z,31
2022-12-04T14:01:28.654Z,30
2022-12-04T14:02:35.404Z,32
2022-12-04T14:03:38.555Z,31
2022-12-04T14:04:41.160Z,31
2022-12-04T14:05:43.772Z,34
2022-12-04T14:06:46.474Z,31
2022-12-04T14:07:49.206Z,31
2022-12-04T14:08:52.004Z,31
2022-12-04T14:09:54.638Z,30
2022-12-04T14:10:57.248Z,30
2022-12-04T14:11:59.823Z,31
2022-12-04T14:13:02.473Z,31
2022-12-04T14:14:08.206Z,31
2022-12-04T14:15:11.733Z,30
2022-12-04T14:16:14.323Z,34
2022-12-04T14:17:17.189Z,31
2022-12-04T14:18:20.003Z,31
2022-12-04T14:19:22.646Z,34
2022-12-04T14:20:25.273Z,35
2022-12-04T14:21:27.899Z,35
2022-12-04T14:22:30.587Z,34
2022-12-04T14:23:33.279Z,34
2022-12-04T14:24:35.884Z,34
2022-12-04T14:25:38.524Z,31
2022-12-04T14:27:09.886Z,30
2022-12-04T14:28:02.961Z,30
2022-12-04T14:29:05.792Z,31
2022-12-04T14:30:08.405Z,34
2022-12-04T14:31:11.059Z,34
2022-12-04T14:32:15.018Z,34
2022-12-04T14:33:17.624Z,34
2022-12-04T14:34:20.500Z,40
2022-12-04T14:35:23.165Z,37
2022-12-04T14:36:25.790Z,35
2022-12-04T14:37:30.005Z,34
2022-12-04T14:38:32.633Z,31
2022-12-04T14:39:35.217Z,34
2022-12-04T14:40:37.822Z,37
2022-12-04T14:41:40.502Z,36
2022-12-04T14:42:43.177Z,34
2022-12-04T14:43:45.822Z,31
2022-12-04T14:44:48.454Z,30
2022-12-04T14:45:51.137Z,35
2022-12-04T14:46:54.047Z,37
2022-12-04T14:47:58.178Z,34
2022-12-04T14:49:00.726Z,31
2022-12-04T14:50:03.379Z,30
2022-12-04T14:51:06.257Z,30
2022-12-04T14:52:08.929Z,30
2022-12-04T14:53:11.449Z,30
2022-12-04T14:54:14.152Z,29
2022-12-04T14:55:16.755Z,31
2022-12-04T14:56:19.362Z,33
2022-12-04T14:57:22.041Z,34
2022-12-04T14:58:24.632Z,35
2022-12-04T14:59:27.235Z,36
2022-12-04T15:00:29.849Z,36
2022-12-04T15:01:32.495Z,34
2022-12-04T15:02:35.168Z,31
2022-12-04T15:03:37.851Z,34
2022-12-04T15:04:40.696Z,30
2022-12-04T15:05:43.686Z,31
2022-12-04T15:06:46.278Z,31
2022-12-04T15:07:49.052Z,30